sensor_id;sensor_type;location;lat;lon;timestamp;pressure;altitude;pressure_sealevel;temperature;humidity
64362;BME280;50685;53.346;-6.296;2023-02-01T00:01:13;102264.72;;;6.37;76.98
64362;BME280;50685;53.346;-6.296;2023-02-01T00:03:39;102254.09;;;6.34;77.04
64362;BME280;50685;53.346;-6.296;2023-02-01T00:06:04;102254.94;;;6.33;77.07
64362;BME280;50685;53.346;-6.296;2023-02-01T00:08:29;102247.91;;;6.34;76.88
64362;BME280;50685;53.346;-6.296;2023-02-01T00:10:58;102253.16;;;6.32;76.81
64362;BME280;50685;53.346;-6.296;2023-02-01T00:13:24;102242.63;;;6.32;76.54
64362;BME280;50685;53.346;-6.296;2023-02-01T00:15:49;102232.16;;;6.35;76.15
64362;BME280;50685;53.346;-6.296;2023-02-01T00:18:14;102243.63;;;6.37;76.27
64362;BME280;50685;53.346;-6.296;2023-02-01T00:20:44;102242.69;;;6.35;76.39
64362;BME280;50685;53.346;-6.296;2023-02-01T00:23:10;102230.38;;;6.34;76.29
64362;BME280;50685;53.346;-6.296;2023-02-01T00:25:38;102240.81;;;6.31;76.18
64362;BME280;50685;53.346;-6.296;2023-02-01T00:28:04;102239.97;;;6.32;76.07
64362;BME280;50685;53.346;-6.296;2023-02-01T00:30:30;102245.25;;;6.32;76.26
64362;BME280;50685;53.346;-6.296;2023-02-01T00:32:57;102241.69;;;6.32;76.21
64362;BME280;50685;53.346;-6.296;2023-02-01T00:35:23;102265.38;;;6.30;76.58
64362;BME280;50685;53.346;-6.296;2023-02-01T00:37:48;102251.28;;;6.28;76.48
64362;BME280;50685;53.346;-6.296;2023-02-01T00:40:13;102252.13;;;6.27;76.79
64362;BME280;50685;53.346;-6.296;2023-02-01T00:42:39;102251.19;;;6.25;76.80
64362;BME280;50685;53.346;-6.296;2023-02-01T00:45:04;102221.34;;;6.24;77.11
64362;BME280;50685;53.346;-6.296;2023-02-01T00:47:29;102251.31;;;6.30;77.00
64362;BME280;50685;53.346;-6.296;2023-02-01T00:49:55;102269.94;;;6.36;76.49
64362;BME280;50685;53.346;-6.296;2023-02-01T00:52:20;102257.75;;;6.39;76.68
64362;BME280;50685;53.346;-6.296;2023-02-01T00:54:45;102249.91;;;6.42;76.25
64362;BME280;50685;53.346;-6.296;2023-02-01T00:57:11;102249.97;;;6.44;75.97
64362;BME280;50685;53.346;-6.296;2023-02-01T00:59:36;102259.56;;;6.42;76.13
64362;BME280;50685;53.346;-6.296;2023-02-01T01:02:01;102241.78;;;6.33;75.96
64362;BME280;50685;53.346;-6.296;2023-02-01T01:04:27;102255.13;;;6.39;76.14
64362;BME280;50685;53.346;-6.296;2023-02-01T01:06:52;102244.66;;;6.42;75.91
64362;BME280;50685;53.346;-6.296;2023-02-01T01:09:17;102252.69;;;6.47;75.74
64362;BME280;50685;53.346;-6.296;2023-02-01T01:11:42;102253.66;;;6.51;75.86
64362;BME280;50685;53.346;-6.296;2023-02-01T01:14:08;102239.63;;;6.52;75.77
64362;BME280;50685;53.346;-6.296;2023-02-01T01:16:33;102241.44;;;6.53;75.63
64362;BME280;50685;53.346;-6.296;2023-02-01T01:18:59;102248.34;;;6.49;76.05
64362;BME280;50685;53.346;-6.296;2023-02-01T01:21:24;102253.59;;;6.48;76.49
64362;BME280;50685;53.346;-6.296;2023-02-01T01:23:50;102244.75;;;6.46;77.06
64362;BME280;50685;53.346;-6.296;2023-02-01T01:26:16;102254.38;;;6.45;77.47
64362;BME280;50685;53.346;-6.296;2023-02-01T01:28:42;102255.19;;;6.42;77.90
64362;BME280;50685;53.346;-6.296;2023-02-01T01:31:11;102257.75;;;6.39;78.39
64362;BME280;50685;53.346;-6.296;2023-02-01T01:33:37;102251.47;;;6.34;78.53
64362;BME280;50685;53.346;-6.296;2023-02-01T01:36:06;102257.59;;;6.33;79.43
64362;BME280;50685;53.346;-6.296;2023-02-01T01:38:31;102250.53;;;6.32;79.69
64362;BME280;50685;53.346;-6.296;2023-02-01T01:40:57;102246.19;;;6.34;79.67
64362;BME280;50685;53.346;-6.296;2023-02-01T01:43:22;102238.41;;;6.39;80.19
64362;BME280;50685;53.346;-6.296;2023-02-01T01:45:48;102246.44;;;6.43;79.92
64362;BME280;50685;53.346;-6.296;2023-02-01T01:48:47;102246.53;;;6.47;79.99
64362;BME280;50685;53.346;-6.296;2023-02-01T01:51:06;102242.31;;;6.53;79.81
64362;BME280;50685;53.346;-6.296;2023-02-01T01:53:36;102241.44;;;6.53;79.61
64362;BME280;50685;53.346;-6.296;2023-02-01T01:56:03;102238.72;;;6.51;79.61
64362;BME280;50685;53.346;-6.296;2023-02-01T01:58:28;102229.78;;;6.45;80.02
64362;BME280;50685;53.346;-6.296;2023-02-01T02:00:58;102245.44;;;6.40;80.05
64362;BME280;50685;53.346;-6.296;2023-02-01T02:03:24;102242.81;;;6.40;80.18
64362;BME280;50685;53.346;-6.296;2023-02-01T02:05:50;102225.19;;;6.37;80.28
64362;BME280;50685;53.346;-6.296;2023-02-01T02:08:17;102218.97;;;6.35;80.36
64362;BME280;50685;53.346;-6.296;2023-02-01T02:10:45;102230.28;;;6.31;80.53
64362;BME280;50685;53.346;-6.296;2023-02-01T02:13:27;102238.97;;;6.27;80.84
64362;BME280;50685;53.346;-6.296;2023-02-01T02:15:58;102233.63;;;6.25;80.97
64362;BME280;50685;53.346;-6.296;2023-02-01T02:18:31;102235.41;;;6.26;80.70
64362;BME280;50685;53.346;-6.296;2023-02-01T02:21:04;102223.06;;;6.24;80.92
64362;BME280;50685;53.346;-6.296;2023-02-01T02:36:47;102222.22;;;6.25;80.14
64362;BME280;50685;53.346;-6.296;2023-02-01T02:39:33;102217.78;;;6.24;80.02
64362;BME280;50685;53.346;-6.296;2023-02-01T02:42:11;102220.44;;;6.25;79.83
64362;BME280;50685;53.346;-6.296;2023-02-01T02:45:12;102215.25;;;6.27;79.81
64362;BME280;50685;53.346;-6.296;2023-02-01T02:50:29;102221.53;;;6.32;79.34
64362;BME280;50685;53.346;-6.296;2023-02-01T02:53:17;102214.50;;;6.33;79.44
64362;BME280;50685;53.346;-6.296;2023-02-01T02:56:05;102218.91;;;6.32;79.31
64362;BME280;50685;53.346;-6.296;2023-02-01T02:58:50;102210.97;;;6.31;79.35
64362;BME280;50685;53.346;-6.296;2023-02-01T03:01:35;102206.56;;;6.31;79.25
64362;BME280;50685;53.346;-6.296;2023-02-01T03:04:19;102201.25;;;6.28;79.32
64362;BME280;50685;53.346;-6.296;2023-02-01T03:06:46;102202.06;;;6.27;79.33
64362;BME280;50685;53.346;-6.296;2023-02-01T03:09:31;102187.13;;;6.26;79.55
64362;BME280;50685;53.346;-6.296;2023-02-01T03:11:58;102200.28;;;6.26;79.76
64362;BME280;50685;53.346;-6.296;2023-02-01T03:14:45;102196.81;;;6.27;79.81
64362;BME280;50685;53.346;-6.296;2023-02-01T03:17:13;102198.59;;;6.28;79.70
64362;BME280;50685;53.346;-6.296;2023-02-01T03:19:40;102199.47;;;6.29;79.91
64362;BME280;50685;53.346;-6.296;2023-02-01T03:22:10;102203.88;;;6.28;79.81
64362;BME280;50685;53.346;-6.296;2023-02-01T03:24:41;102196.81;;;6.27;79.97
64362;BME280;50685;53.346;-6.296;2023-02-01T03:27:17;102177.53;;;6.28;79.84
64362;BME280;50685;53.346;-6.296;2023-02-01T03:32:11;102211.84;;;6.31;79.67
64362;BME280;50685;53.346;-6.296;2023-02-01T03:34:37;102187.25;;;6.31;79.73
64362;BME280;50685;53.346;-6.296;2023-02-01T03:37:03;102187.25;;;6.31;79.92
64362;BME280;50685;53.346;-6.296;2023-02-01T03:39:31;102198.66;;;6.31;80.24
64362;BME280;50685;53.346;-6.296;2023-02-01T03:42:02;102196.91;;;6.32;80.25
64362;BME280;50685;53.346;-6.296;2023-02-01T03:44:30;102196.84;;;6.29;80.47
64362;BME280;50685;53.346;-6.296;2023-02-01T03:47:10;102197.69;;;6.27;80.68
64362;BME280;50685;53.346;-6.296;2023-02-01T03:49:44;102184.47;;;6.26;80.82
64362;BME280;50685;53.346;-6.296;2023-02-01T03:52:15;102173.16;;;6.30;80.64
64362;BME280;50685;53.346;-6.296;2023-02-01T03:54:42;102188.06;;;6.28;80.36
64362;BME280;50685;53.346;-6.296;2023-02-01T03:57:09;102176.53;;;6.24;80.55
64362;BME280;50685;53.346;-6.296;2023-02-01T03:59:42;102172.13;;;6.23;80.72
64362;BME280;50685;53.346;-6.296;2023-02-01T04:02:09;102162.47;;;6.24;80.55
64362;BME280;50685;53.346;-6.296;2023-02-01T04:04:34;102166.88;;;6.25;80.46
64362;BME280;50685;53.346;-6.296;2023-02-01T04:07:00;102144.13;;;6.27;80.45
64362;BME280;50685;53.346;-6.296;2023-02-01T04:09:25;102157.34;;;6.30;80.41
64362;BME280;50685;53.346;-6.296;2023-02-01T04:11:50;102158.44;;;6.37;80.03
64362;BME280;50685;53.346;-6.296;2023-02-01T04:14:15;102146.22;;;6.40;79.87
64362;BME280;50685;53.346;-6.296;2023-02-01T04:16:41;102163.06;;;6.46;79.49
64362;BME280;50685;53.346;-6.296;2023-02-01T04:19:06;102145.59;;;6.51;79.14
64362;BME280;50685;53.346;-6.296;2023-02-01T04:21:31;102139.53;;;6.53;79.11
64362;BME280;50685;53.346;-6.296;2023-02-01T04:23:59;102143.22;;;6.60;78.71
64362;BME280;50685;53.346;-6.296;2023-02-01T04:26:25;102130.13;;;6.65;78.42
64362;BME280;50685;53.346;-6.296;2023-02-01T04:28:50;102143.38;;;6.66;77.89
64362;BME280;50685;53.346;-6.296;2023-02-01T04:31:17;102153.84;;;6.65;77.91
64362;BME280;50685;53.346;-6.296;2023-02-01T04:33:50;102125.75;;;6.64;77.88
64362;BME280;50685;53.346;-6.296;2023-02-01T04:36:15;102149.53;;;6.67;77.76
64362;BME280;50685;53.346;-6.296;2023-02-01T04:38:44;102141.63;;;6.67;77.62
64362;BME280;50685;53.346;-6.296;2023-02-01T04:41:10;102140.78;;;6.69;77.42
64362;BME280;50685;53.346;-6.296;2023-02-01T04:43:35;102133.75;;;6.68;77.52
64362;BME280;50685;53.346;-6.296;2023-02-01T04:46:00;102125.81;;;6.67;77.44
64362;BME280;50685;53.346;-6.296;2023-02-01T04:48:25;102141.59;;;6.65;77.69
64362;BME280;50685;53.346;-6.296;2023-02-01T04:50:51;102142.47;;;6.66;77.42
64362;BME280;50685;53.346;-6.296;2023-02-01T04:53:16;102119.56;;;6.63;77.40
64362;BME280;50685;53.346;-6.296;2023-02-01T04:55:42;102150.41;;;6.67;77.35
64362;BME280;50685;53.346;-6.296;2023-02-01T04:58:07;102137.16;;;6.64;77.44
64362;BME280;50685;53.346;-6.296;2023-02-01T05:00:33;102138.81;;;6.61;77.56
64362;BME280;50685;53.346;-6.296;2023-02-01T05:02:58;102138.78;;;6.59;77.39
64362;BME280;50685;53.346;-6.296;2023-02-01T05:05:23;102140.53;;;6.58;77.31
64362;BME280;50685;53.346;-6.296;2023-02-01T05:07:49;102143.16;;;6.58;77.36
64362;BME280;50685;53.346;-6.296;2023-02-01T05:10:14;102146.69;;;6.59;77.37
64362;BME280;50685;53.346;-6.296;2023-02-01T05:12:39;102148.38;;;6.55;77.37
64362;BME280;50685;53.346;-6.296;2023-02-01T05:15:31;102135.16;;;6.54;77.50
64362;BME280;50685;53.346;-6.296;2023-02-01T05:17:56;102146.53;;;6.53;77.26
64362;BME280;50685;53.346;-6.296;2023-02-01T05:20:22;102142.13;;;6.52;77.43
64362;BME280;50685;53.346;-6.296;2023-02-01T05:22:48;102146.47;;;6.51;77.25
64362;BME280;50685;53.346;-6.296;2023-02-01T05:25:13;102158.81;;;6.52;77.30
64362;BME280;50685;53.346;-6.296;2023-02-01T05:27:38;102151.00;;;6.55;77.32
64362;BME280;50685;53.346;-6.296;2023-02-01T05:30:04;102161.59;;;6.58;77.43
64362;BME280;50685;53.346;-6.296;2023-02-01T05:32:30;102167.78;;;6.59;77.34
64362;BME280;50685;53.346;-6.296;2023-02-01T05:34:55;102165.28;;;6.64;77.08
64362;BME280;50685;53.346;-6.296;2023-02-01T05:37:20;102156.63;;;6.69;77.10
64362;BME280;50685;53.346;-6.296;2023-02-01T05:39:45;102193.66;;;6.74;76.87
64362;BME280;50685;53.346;-6.296;2023-02-01T05:42:11;102174.38;;;6.77;77.12
64362;BME280;50685;53.346;-6.296;2023-02-01T05:44:36;102170.03;;;6.79;76.87
64362;BME280;50685;53.346;-6.296;2023-02-01T05:47:01;102155.91;;;6.77;77.02
64362;BME280;50685;53.346;-6.296;2023-02-01T05:49:26;102156.75;;;6.74;77.36
64362;BME280;50685;53.346;-6.296;2023-02-01T05:51:52;102153.97;;;6.69;77.57
64362;BME280;50685;53.346;-6.296;2023-02-01T05:54:17;102153.97;;;6.69;77.61
64362;BME280;50685;53.346;-6.296;2023-02-01T05:56:42;102158.31;;;6.67;78.13
64362;BME280;50685;53.346;-6.296;2023-02-01T05:59:08;102152.09;;;6.64;78.34
64362;BME280;50685;53.346;-6.296;2023-02-01T06:01:33;102144.13;;;6.62;78.64
64362;BME280;50685;53.346;-6.296;2023-02-01T06:03:59;102149.34;;;6.59;78.82
64362;BME280;50685;53.346;-6.296;2023-02-01T06:06:24;102153.69;;;6.58;78.82
64362;BME280;50685;53.346;-6.296;2023-02-01T06:08:49;102159.88;;;6.59;79.05
64362;BME280;50685;53.346;-6.296;2023-02-01T06:11:14;102148.44;;;6.58;79.17
64362;BME280;50685;53.346;-6.296;2023-02-01T06:13:40;102169.59;;;6.60;79.40
64362;BME280;50685;53.346;-6.296;2023-02-01T06:16:05;102157.38;;;6.64;79.41
64362;BME280;50685;53.346;-6.296;2023-02-01T06:18:32;102144.19;;;6.64;79.34
64362;BME280;50685;53.346;-6.296;2023-02-01T06:20:58;102153.81;;;6.63;79.79
64362;BME280;50685;53.346;-6.296;2023-02-01T06:23:25;102160.00;;;6.64;79.77
64362;BME280;50685;53.346;-6.296;2023-02-01T06:25:51;102163.53;;;6.64;79.89
64362;BME280;50685;53.346;-6.296;2023-02-01T06:28:17;102166.13;;;6.63;80.02
64362;BME280;50685;53.346;-6.296;2023-02-01T06:30:42;102168.69;;;6.61;80.24
64362;BME280;50685;53.346;-6.296;2023-02-01T06:33:11;102165.19;;;6.61;80.34
64362;BME280;50685;53.346;-6.296;2023-02-01T06:35:36;102159.03;;;6.60;80.50
64362;BME280;50685;53.346;-6.296;2023-02-01T06:38:01;102157.28;;;6.61;80.85
64362;BME280;50685;53.346;-6.296;2023-02-01T06:40:27;102160.78;;;6.61;80.41
64362;BME280;50685;53.346;-6.296;2023-02-01T06:42:52;102165.22;;;6.62;80.21
64362;BME280;50685;53.346;-6.296;2023-02-01T06:45:17;102177.56;;;6.63;80.47
64362;BME280;50685;53.346;-6.296;2023-02-01T06:47:42;102167.13;;;6.68;80.28
64362;BME280;50685;53.346;-6.296;2023-02-01T06:50:08;102168.06;;;6.70;80.04
64362;BME280;50685;53.346;-6.296;2023-02-01T06:52:34;102165.44;;;6.70;80.02
64362;BME280;50685;53.346;-6.296;2023-02-01T06:55:00;102175.97;;;6.70;80.07
64362;BME280;50685;53.346;-6.296;2023-02-01T06:57:25;102178.63;;;6.70;79.93
64362;BME280;50685;53.346;-6.296;2023-02-01T06:59:55;102168.97;;;6.72;80.12
64362;BME280;50685;53.346;-6.296;2023-02-01T07:02:20;102173.50;;;6.76;80.04
64362;BME280;50685;53.346;-6.296;2023-02-01T07:04:46;102159.44;;;6.77;80.13
64362;BME280;50685;53.346;-6.296;2023-02-01T07:07:11;102138.34;;;6.77;80.33
64362;BME280;50685;53.346;-6.296;2023-02-01T07:09:37;102153.41;;;6.81;80.18
64362;BME280;50685;53.346;-6.296;2023-02-01T07:12:03;102170.09;;;6.82;79.96
64362;BME280;50685;53.346;-6.296;2023-02-01T07:14:28;102136.75;;;6.82;80.08
64362;BME280;50685;53.346;-6.296;2023-02-01T07:16:53;102171.03;;;6.84;80.09
64362;BME280;50685;53.346;-6.296;2023-02-01T07:19:19;102150.81;;;6.84;80.03
64362;BME280;50685;53.346;-6.296;2023-02-01T07:21:44;102161.34;;;6.83;79.97
64362;BME280;50685;53.346;-6.296;2023-02-01T07:24:09;102117.47;;;6.85;80.10
64362;BME280;50685;53.346;-6.296;2023-02-01T07:26:35;102158.72;;;6.83;80.08
64362;BME280;50685;53.346;-6.296;2023-02-01T07:29:00;102166.63;;;6.83;80.32
64362;BME280;50685;53.346;-6.296;2023-02-01T07:31:25;102164.84;;;6.82;80.58
64362;BME280;50685;53.346;-6.296;2023-02-01T07:33:51;102156.06;;;6.83;80.91
64362;BME280;50685;53.346;-6.296;2023-02-01T07:36:16;102154.38;;;6.85;80.92
64362;BME280;50685;53.346;-6.296;2023-02-01T07:38:42;102166.72;;;6.86;80.79
64362;BME280;50685;53.346;-6.296;2023-02-01T07:41:08;102170.22;;;6.86;80.76
64362;BME280;50685;53.346;-6.296;2023-02-01T07:43:34;102179.00;;;6.87;80.81
64362;BME280;50685;53.346;-6.296;2023-02-01T07:45:59;102179.00;;;6.87;81.06
64362;BME280;50685;53.346;-6.296;2023-02-01T07:48:25;102172.88;;;6.88;81.04
64362;BME280;50685;53.346;-6.296;2023-02-01T07:50:57;102173.84;;;6.90;81.01
64362;BME280;50685;53.346;-6.296;2023-02-01T07:53:23;102164.22;;;6.92;81.01
64362;BME280;50685;53.346;-6.296;2023-02-01T07:55:48;102178.28;;;6.93;81.38
64362;BME280;50685;53.346;-6.296;2023-02-01T07:58:14;102188.00;;;6.94;81.51
64362;BME280;50685;53.346;-6.296;2023-02-01T08:00:39;102189.72;;;6.93;81.47
64362;BME280;50685;53.346;-6.296;2023-02-01T08:03:23;102195.91;;;6.94;81.84
64362;BME280;50685;53.346;-6.296;2023-02-01T08:05:53;102178.31;;;6.94;81.91
64362;BME280;50685;53.346;-6.296;2023-02-01T08:08:18;102194.13;;;6.94;81.94
64362;BME280;50685;53.346;-6.296;2023-02-01T08:10:44;102204.69;;;6.94;81.84
64362;BME280;50685;53.346;-6.296;2023-02-01T08:13:29;102206.47;;;6.95;81.93
64362;BME280;50685;53.346;-6.296;2023-02-01T08:15:59;102209.22;;;6.98;81.80
64362;BME280;50685;53.346;-6.296;2023-02-01T08:18:24;102201.28;;;6.98;81.71
64362;BME280;50685;53.346;-6.296;2023-02-01T08:20:50;102211.03;;;7.01;81.81
64362;BME280;50685;53.346;-6.296;2023-02-01T08:23:16;102215.47;;;7.02;81.55
64362;BME280;50685;53.346;-6.296;2023-02-01T08:25:42;102217.22;;;7.03;81.56
64362;BME280;50685;53.346;-6.296;2023-02-01T08:28:07;102217.31;;;7.06;81.73
64362;BME280;50685;53.346;-6.296;2023-02-01T08:30:33;102221.75;;;7.08;81.51
64362;BME280;50685;53.346;-6.296;2023-02-01T08:33:01;102232.41;;;7.12;81.37
64362;BME280;50685;53.346;-6.296;2023-02-01T08:35:26;102223.69;;;7.16;81.53
64362;BME280;50685;53.346;-6.296;2023-02-01T08:37:51;102224.69;;;7.21;81.46
64362;BME280;50685;53.346;-6.296;2023-02-01T08:40:17;102230.22;;;7.30;81.22
64362;BME280;50685;53.346;-6.296;2023-02-01T08:42:42;102233.06;;;7.39;80.90
64362;BME280;50685;53.346;-6.296;2023-02-01T08:45:18;102242.06;;;7.48;80.55
64362;BME280;50685;53.346;-6.296;2023-02-01T08:47:46;102225.53;;;7.56;80.15
64362;BME280;50685;53.346;-6.296;2023-02-01T08:50:13;102226.50;;;7.60;79.87
64362;BME280;50685;53.346;-6.296;2023-02-01T08:52:38;102235.38;;;7.64;80.08
64362;BME280;50685;53.346;-6.296;2023-02-01T08:55:04;102238.03;;;7.65;79.77
64362;BME280;50685;53.346;-6.296;2023-02-01T08:57:30;102233.63;;;7.64;79.69
64362;BME280;50685;53.346;-6.296;2023-02-01T08:59:57;102239.81;;;7.65;79.63
64362;BME280;50685;53.346;-6.296;2023-02-01T09:02:22;102246.94;;;7.69;79.54
64362;BME280;50685;53.346;-6.296;2023-02-01T09:04:47;102239.34;;;7.83;78.69
64362;BME280;50685;53.346;-6.296;2023-02-01T09:07:13;102235.22;;;7.97;78.06
64362;BME280;50685;53.346;-6.296;2023-02-01T09:09:38;102232.88;;;8.11;77.50
64362;BME280;50685;53.346;-6.296;2023-02-01T09:12:04;102251.63;;;8.24;76.54
64362;BME280;50685;53.346;-6.296;2023-02-01T09:14:32;102242.25;;;8.40;76.21
64362;BME280;50685;53.346;-6.296;2023-02-01T09:16:57;102244.34;;;8.56;75.50
64362;BME280;50685;53.346;-6.296;2023-02-01T09:19:23;102263.94;;;8.67;74.94
64362;BME280;50685;53.346;-6.296;2023-02-01T09:21:48;102249.84;;;8.67;74.73
64362;BME280;50685;53.346;-6.296;2023-02-01T09:24:16;102272.94;;;8.76;74.77
64362;BME280;50685;53.346;-6.296;2023-02-01T09:26:41;102262.47;;;8.83;74.61
64362;BME280;50685;53.346;-6.296;2023-02-01T09:29:07;102282.91;;;8.91;74.22
64362;BME280;50685;53.346;-6.296;2023-02-01T09:31:36;102271.25;;;8.81;74.41
64362;BME280;50685;53.346;-6.296;2023-02-01T09:34:04;102267.59;;;8.73;74.64
64362;BME280;50685;53.346;-6.296;2023-02-01T09:36:30;102262.13;;;8.63;75.11
64362;BME280;50685;53.346;-6.296;2023-02-01T09:38:55;102269.13;;;8.61;75.41
64362;BME280;50685;53.346;-6.296;2023-02-01T09:41:25;102282.31;;;8.58;75.51
64362;BME280;50685;53.346;-6.296;2023-02-01T09:46:39;102279.56;;;8.54;75.63
64362;BME280;50685;53.346;-6.296;2023-02-01T09:49:08;102280.41;;;8.52;75.81
64362;BME280;50685;53.346;-6.296;2023-02-01T09:54:46;102275.03;;;8.48;76.29
64362;BME280;50685;53.346;-6.296;2023-02-01T10:00:37;102267.09;;;8.48;76.62
64362;BME280;50685;53.346;-6.296;2023-02-01T10:03:03;102259.16;;;8.48;76.56
64362;BME280;50685;53.346;-6.296;2023-02-01T10:10:59;102264.78;;;8.65;76.23
64362;BME280;50685;53.346;-6.296;2023-02-01T10:26:23;102272.34;;;9.46;73.33
64362;BME280;50685;53.346;-6.296;2023-02-01T10:28:50;102258.44;;;9.61;72.56
64362;BME280;50685;53.346;-6.296;2023-02-01T10:31:16;102267.47;;;9.74;72.17
64362;BME280;50685;53.346;-6.296;2023-02-01T10:33:46;102271.16;;;9.82;72.07
64362;BME280;50685;53.346;-6.296;2023-02-01T10:38:40;102267.50;;;9.77;72.46
64362;BME280;50685;53.346;-6.296;2023-02-01T10:43:36;102275.19;;;9.58;74.28
64362;BME280;50685;53.346;-6.296;2023-02-01T10:46:04;102277.16;;;9.73;74.08
64362;BME280;50685;53.346;-6.296;2023-02-01T10:48:30;102274.81;;;9.93;73.31
64362;BME280;50685;53.346;-6.296;2023-02-01T10:51:00;102284.66;;;10.02;72.65
64362;BME280;50685;53.346;-6.296;2023-02-01T10:53:28;102292.69;;;10.08;72.43
64362;BME280;50685;53.346;-6.296;2023-02-01T10:55:57;102287.41;;;10.10;72.03
64362;BME280;50685;53.346;-6.296;2023-02-01T10:58:27;102288.47;;;10.23;71.58
64362;BME280;50685;53.346;-6.296;2023-02-01T11:03:19;102282.97;;;10.09;72.13
64362;BME280;50685;53.346;-6.296;2023-02-01T11:05:46;102293.63;;;10.10;72.15
64362;BME280;50685;53.346;-6.296;2023-02-01T11:08:14;102291.94;;;10.19;72.20
64362;BME280;50685;53.346;-6.296;2023-02-01T11:10:42;102283.19;;;10.26;72.09
64362;BME280;50685;53.346;-6.296;2023-02-01T11:13:15;102291.28;;;10.35;71.68
64362;BME280;50685;53.346;-6.296;2023-02-01T11:15:44;102298.44;;;10.41;71.59
64362;BME280;50685;53.346;-6.296;2023-02-01T11:18:18;102324.22;;;10.54;71.38
64362;BME280;50685;53.346;-6.296;2023-02-01T11:20:43;102307.44;;;10.52;71.20
64362;BME280;50685;53.346;-6.296;2023-02-01T11:23:16;102293.97;;;10.37;71.65
64362;BME280;50685;53.346;-6.296;2023-02-01T11:25:49;102299.09;;;10.24;72.12
64362;BME280;50685;53.346;-6.296;2023-02-01T11:28:15;102303.38;;;10.15;72.64
64362;BME280;50685;53.346;-6.296;2023-02-01T11:30:42;102304.38;;;10.23;72.30
64362;BME280;50685;53.346;-6.296;2023-02-01T11:33:12;102279.44;;;10.10;72.22
64362;BME280;50685;53.346;-6.296;2023-02-01T11:35:38;102274.13;;;10.08;72.66
64362;BME280;50685;53.346;-6.296;2023-02-01T11:38:27;102287.22;;;9.96;73.05
64362;BME280;50685;53.346;-6.296;2023-02-01T11:40:52;102276.47;;;9.87;73.24
64362;BME280;50685;53.346;-6.296;2023-02-01T11:43:22;102264.16;;;9.87;73.38
64362;BME280;50685;53.346;-6.296;2023-02-01T11:45:58;102253.47;;;9.81;73.13
64362;BME280;50685;53.346;-6.296;2023-02-01T11:48:25;102276.53;;;9.88;73.32
64362;BME280;50685;53.346;-6.296;2023-02-01T11:53:29;102251.03;;;9.98;73.02
64362;BME280;50685;53.346;-6.296;2023-02-01T11:56:03;102252.06;;;10.08;72.59
64362;BME280;50685;53.346;-6.296;2023-02-01T12:01:30;102247.78;;;10.21;70.91
64362;BME280;50685;53.346;-6.296;2023-02-01T12:06:36;102238.09;;;10.24;70.58
64362;BME280;50685;53.346;-6.296;2023-02-01T12:12:07;102234.75;;;10.36;69.70
64362;BME280;50685;53.346;-6.296;2023-02-01T12:32:53;102247.31;;;10.54;68.91
64362;BME280;50685;53.346;-6.296;2023-02-01T12:37:57;102249.22;;;10.68;68.52
64362;BME280;50685;53.346;-6.296;2023-02-01T12:46:04;102240.50;;;10.78;68.13
64362;BME280;50685;53.346;-6.296;2023-02-01T12:48:38;102231.63;;;10.76;68.17
64362;BME280;50685;53.346;-6.296;2023-02-01T12:51:08;102229.81;;;10.72;67.75
64362;BME280;50685;53.346;-6.296;2023-02-01T13:02:24;102239.63;;;10.81;67.23
64362;BME280;50685;53.346;-6.296;2023-02-01T13:08:02;102245.91;;;10.89;67.27
64362;BME280;50685;53.346;-6.296;2023-02-01T13:13:03;102236.13;;;10.85;67.52
64362;BME280;50685;53.346;-6.296;2023-02-01T13:15:46;102208.66;;;10.83;67.46
64362;BME280;50685;53.346;-6.296;2023-02-01T13:18:14;102233.50;;;10.88;67.32
64362;BME280;50685;53.346;-6.296;2023-02-01T13:21:06;102220.38;;;11.06;66.86
64362;BME280;50685;53.346;-6.296;2023-02-01T13:23:34;102237.28;;;11.15;66.10
64362;BME280;50685;53.346;-6.296;2023-02-01T13:26:00;102233.72;;;11.14;66.41
64362;BME280;50685;53.346;-6.296;2023-02-01T13:31:15;102228.34;;;11.05;65.95
64362;BME280;50685;53.346;-6.296;2023-02-01T13:36:34;102230.75;;;10.79;66.55
64362;BME280;50685;53.346;-6.296;2023-02-01T13:41:32;102221.00;;;10.73;67.13
64362;BME280;50685;53.346;-6.296;2023-02-01T13:44:03;102228.03;;;10.72;66.79
64362;BME280;50685;53.346;-6.296;2023-02-01T13:46:37;102217.44;;;10.74;66.89
64362;BME280;50685;53.346;-6.296;2023-02-01T13:49:03;102218.34;;;10.74;66.18
64362;BME280;50685;53.346;-6.296;2023-02-01T13:51:48;102197.13;;;10.74;65.43
64362;BME280;50685;53.346;-6.296;2023-02-01T13:56:51;102236.00;;;10.69;64.91
64362;BME280;50685;53.346;-6.296;2023-02-01T14:02:36;102228.84;;;10.64;65.70
64362;BME280;50685;53.346;-6.296;2023-02-01T14:04:48;102233.28;;;10.65;66.54
64362;BME280;50685;53.346;-6.296;2023-02-01T14:07:18;102213.03;;;10.76;66.46
64362;BME280;50685;53.346;-6.296;2023-02-01T14:09:44;102214.06;;;10.90;66.32
64362;BME280;50685;53.346;-6.296;2023-02-01T14:15:16;102222.06;;;10.98;66.51
64362;BME280;50685;53.346;-6.296;2023-02-01T14:17:40;102207.03;;;10.97;66.55
64362;BME280;50685;53.346;-6.296;2023-02-01T14:22:50;102207.91;;;10.96;66.32
64362;BME280;50685;53.346;-6.296;2023-02-01T14:25:17;102223.91;;;11.05;66.20
64362;BME280;50685;53.346;-6.296;2023-02-01T14:27:43;102226.53;;;11.02;66.68
64362;BME280;50685;53.346;-6.296;2023-02-01T14:30:11;102205.19;;;10.88;67.05
64362;BME280;50685;53.346;-6.296;2023-02-01T14:32:40;102204.19;;;10.75;67.35
64362;BME280;50685;53.346;-6.296;2023-02-01T14:35:18;102235.19;;;10.78;67.30
64362;BME280;50685;53.346;-6.296;2023-02-01T14:37:44;102209.56;;;10.82;67.58
64362;BME280;50685;53.346;-6.296;2023-02-01T14:50:23;102215.06;;;11.05;66.34
64362;BME280;50685;53.346;-6.296;2023-02-01T14:58:12;102216.97;;;11.20;65.37
64362;BME280;50685;53.346;-6.296;2023-02-01T15:00:46;102213.38;;;11.19;64.95
64362;BME280;50685;53.346;-6.296;2023-02-01T15:03:34;102209.81;;;11.16;65.17
64362;BME280;50685;53.346;-6.296;2023-02-01T15:06:03;102217.78;;;11.14;65.18
64362;BME280;50685;53.346;-6.296;2023-02-01T15:08:32;102215.06;;;11.05;65.40
64362;BME280;50685;53.346;-6.296;2023-02-01T15:10:58;102215.81;;;10.88;65.75
64362;BME280;50685;53.346;-6.296;2023-02-01T15:13:26;102220.09;;;10.74;66.33